Time;durP1;ratioP1;P1;durP2;ratioP2;P2;SDS_P1;SDS_P2;PMS_P1;PMS_P2;Temp;Humidity;BMP_temperature;BMP_pressure;BME280_temperature;BME280_humidity;BME280_pressure;Samples;Min_cycle;Max_cycle;Signal;HPM_P1;HPM_P2
2022/08/26 00:01:59;;;;;;;;;;;17.40;99.90;;;;;;5034051;28;20391;-80
2022/08/26 00:04:24;;;;;;;;;;;17.20;99.90;;;;;;5034110;28;19916;-81
2022/08/26 00:06:50;;;;;;;;;;;17.20;99.90;;;;;;5034974;28;20361;-82
2022/08/26 00:09:16;;;;;;;;;;;17.10;99.90;;;;;;5034140;28;20369;-81
2022/08/26 00:11:41;;;;;;;;;;;17.20;99.90;;;;;;5034183;28;20000;-80
2022/08/26 00:14:07;;;;;;;;;;;17.20;99.90;;;;;;5033963;28;19913;-80
2022/08/26 00:16:33;;;;;;;;;;;17.10;99.90;;;;;;5033928;28;19916;-80
2022/08/26 00:18:59;;;;;;;;;;;17.20;99.90;;;;;;5033557;28;19909;-80
2022/08/26 00:21:24;;;;;;;;;;;17.30;99.90;;;;;;5032511;28;19909;-78
2022/08/26 00:23:50;;;;;;;;;;;17.30;99.90;;;;;;5032571;28;20365;-80
2022/08/26 00:26:16;;;;;;;;;;;17.10;99.90;;;;;;5033834;28;19916;-79
2022/08/26 00:28:41;;;;;;;;;;;16.70;99.90;;;;;;5033953;28;19940;-81
2022/08/26 00:31:07;;;;;;;;;;;16.70;99.90;;;;;;5033774;28;19996;-82
2022/08/26 00:33:33;;;;;;;;;;;16.70;99.90;;;;;;5033644;28;19931;-80
2022/08/26 00:35:58;;;;;;;;;;;16.90;99.90;;;;;;5033630;28;19909;-82
2022/08/26 00:38:24;;;;;;;;;;;17.10;99.90;;;;;;5033729;28;19932;-82
2022/08/26 00:40:52;;;;;;;;;;;17.00;99.90;;;;;;5033547;28;19975;-80
2022/08/26 00:43:18;;;;;;;;;;;17.00;99.90;;;;;;5033329;28;19917;-80
2022/08/26 00:45:47;;;;;;;;;;;17.00;99.90;;;;;;5033911;28;19914;-81
2022/08/26 00:48:14;;;;;;;;;;;16.90;99.90;;;;;;4967016;28;1903532;-80
2022/08/26 00:50:41;;;;;;;;;;;16.80;99.90;;;;;;5034203;28;19913;-79
2022/08/26 00:53:20;;;;;;;;;;;16.80;99.90;;;;;;5034207;28;19917;-81
2022/08/26 00:55:54;;;;;;;;;;;16.80;99.90;;;;;;5034397;28;20400;-81
2022/08/26 00:58:21;;;;;;;;;;;16.80;99.90;;;;;;5034434;28;19909;-80
2022/08/26 01:00:47;;;;;;;;;;;16.80;99.90;;;;;;5034032;28;19909;-80
2022/08/26 01:03:13;;;;;;;;;;;16.70;99.90;;;;;;5033944;28;19936;-81
2022/08/26 01:05:40;;;;;;;;;;;16.80;99.90;;;;;;5033973;28;19995;-82
2022/08/26 01:08:06;;;;;;;;;;;16.80;99.90;;;;;;5034477;28;19914;-78
2022/08/26 01:10:32;;;;;;;;;;;16.80;99.90;;;;;;5034125;28;19959;-81
2022/08/26 01:12:59;;;;;;;;;;;16.80;99.90;;;;;;5033902;28;19913;-80
2022/08/26 01:15:29;;;;;;;;;;;16.80;99.90;;;;;;5033835;28;19909;-82
2022/08/26 01:17:57;;;;;;;;;;;16.70;99.90;;;;;;5034060;28;19909;-78
2022/08/26 01:20:41;;;;;;;;;;;16.70;99.90;;;;;;5033772;28;19909;-81
2022/08/26 01:23:09;;;;;;;;;;;16.40;99.90;;;;;;5033717;28;20456;-81
2022/08/26 01:25:38;;;;;;;;;;;16.30;99.90;;;;;;5032463;28;20420;-81
2022/08/26 01:28:05;;;;;;;;;;;16.30;99.90;;;;;;5033812;28;19909;-81
2022/08/26 01:30:32;;;;;;;;;;;16.40;99.90;;;;;;5033176;28;20007;-79
2022/08/26 01:32:59;;;;;;;;;;;16.50;99.90;;;;;;5033352;28;20373;-81
2022/08/26 01:35:26;;;;;;;;;;;16.50;99.90;;;;;;5033608;28;19956;-83
2022/08/26 01:37:53;;;;;;;;;;;16.60;99.90;;;;;;5033602;28;19909;-83
2022/08/26 01:40:20;;;;;;;;;;;16.60;99.90;;;;;;5033619;28;19916;-80
2022/08/26 01:42:47;;;;;;;;;;;16.50;99.90;;;;;;5033467;28;20357;-80
2022/08/26 01:45:17;;;;;;;;;;;16.50;99.90;;;;;;5033889;28;19992;-81
2022/08/26 01:47:43;;;;;;;;;;;16.50;99.90;;;;;;5032049;28;20278;-79
2022/08/26 01:50:11;;;;;;;;;;;16.50;99.90;;;;;;5033635;28;19992;-80
2022/08/26 01:52:38;;;;;;;;;;;16.50;99.90;;;;;;5033629;28;19916;-80
2022/08/26 01:55:05;;;;;;;;;;;16.50;99.90;;;;;;5033481;28;19909;-81
2022/08/26 01:57:30;;;;;;;;;;;16.50;99.90;;;;;;5033566;28;20361;-79
2022/08/26 01:59:58;;;;;;;;;;;16.40;99.90;;;;;;5033353;28;19909;-79
2022/08/26 02:02:24;;;;;;;;;;;16.20;99.90;;;;;;5033393;28;20015;-81
2022/08/26 02:04:53;;;;;;;;;;;16.00;99.90;;;;;;5033353;28;20005;-80
2022/08/26 02:07:19;;;;;;;;;;;16.00;99.90;;;;;;5033852;28;19909;-82
2022/08/26 02:09:45;;;;;;;;;;;16.10;99.90;;;;;;5033348;28;19909;-81
2022/08/26 02:12:11;;;;;;;;;;;16.20;99.90;;;;;;5033379;28;19963;-80
2022/08/26 02:14:42;;;;;;;;;;;16.20;99.90;;;;;;5033306;28;19909;-80
2022/08/26 02:17:09;;;;;;;;;;;16.10;99.90;;;;;;5033717;28;19909;-81
2022/08/26 02:19:37;;;;;;;;;;;16.10;99.90;;;;;;5033205;28;19916;-81
2022/08/26 02:22:05;;;;;;;;;;;15.90;99.90;;;;;;5033187;28;19958;-77
2022/08/26 02:24:31;;;;;;;;;;;;;;;;;;5033149;28;19909;-79
2022/08/26 02:26:57;;;;;;;;;;;;;;;;;;5033129;28;19916;-81
2022/08/26 02:29:23;;;;;;;;;;;;;;;;;;5033106;28;19909;-82
2022/08/26 02:31:48;;;;;;;;;;;;;;;;;;5033249;28;20027;-82
2022/08/26 02:34:14;;;;;;;;;;;;;;;;;;5033116;28;20385;-81
2022/08/26 02:36:40;;;;;;;;;;;;;;;;;;5033298;28;19917;-82
2022/08/26 02:39:06;;;;;;;;;;;;;;;;;;5033047;28;19915;-79
2022/08/26 02:41:32;;;;;;;;;;;;;;;;;;5032991;28;19956;-79
2022/08/26 02:43:58;;;;;;;;;;;;;;;;;;5036226;28;19909;-79
2022/08/26 02:46:24;;;;;;;;;;;;;;;;;;5036572;28;19975;-81
2022/08/26 02:48:50;;;;;;;;;;;;;;;;;;5036179;28;20380;-81
2022/08/26 02:51:16;;;;;;;;;;;;;;;;;;5036455;28;19909;-82
2022/08/26 02:53:42;;;;;;;;;;;;;;;;;;5036357;28;20104;-78
2022/08/26 02:56:08;;;;;;;;;;;;;;;;;;5036360;28;19913;-80
2022/08/26 02:58:34;;;;;;;;;;;;;;;;;;5036659;28;19909;-79
2022/08/26 03:00:59;;;;;;;;;;;;;;;;;;5036253;28;19909;-80
2022/08/26 03:03:25;;;;;;;;;;;;;;;;;;5036231;28;19913;-79
2022/08/26 03:05:51;;;;;;;;;;;;;;;;;;5036141;28;20004;-81
2022/08/26 03:08:17;;;;;;;;;;;;;;;;;;5036663;28;19920;-81
2022/08/26 03:10:43;;;;;;;;;;;;;;;;;;5036238;28;20262;-82
2022/08/26 03:13:09;;;;;;;;;;;;;;;;;;5036064;28;19996;-82
2022/08/26 03:15:35;;;;;;;;;;;;;;;;;;5036130;28;19959;-79
2022/08/26 03:18:01;;;;;;;;;;;;;;;;;;5035948;28;19916;-81
2022/08/26 03:20:27;;;;;;;;;;;;;;;;;;5036078;28;19917;-79
2022/08/26 03:22:55;;;;;;;;;;;;;;;;;;5035779;28;19964;-81
2022/08/26 03:25:21;;;;;;;;;;;;;;;;;;5035927;28;19910;-81
2022/08/26 03:27:47;;;;;;;;;;;;;;;;;;5035735;28;20289;-80
2022/08/26 03:32:57;;;;;;;;;;;;;;;;;;5035496;28;19915;-79
2022/08/26 03:35:25;;;;;;;;;;;;;;;;;;5035584;28;19992;-82
2022/08/26 03:37:51;;;;;;;;;;;;;;;;;;5036020;28;20276;-82
2022/08/26 03:40:18;;;;;;;;;;;;;;;;;;5035953;28;20395;-82
2022/08/26 03:42:44;;;;;;;;;;;;;;;;;;5035428;28;19917;-79
2022/08/26 03:45:10;;;;;;;;;;;;;;;;;;5035403;28;19909;-80
2022/08/26 03:47:36;;;;;;;;;;;;;;;;;;5035126;28;19949;-82
2022/08/26 03:50:03;;;;;;;;;;;;;;;;;;5035437;28;19975;-80
2022/08/26 03:52:29;;;;;;;;;;;;;;;;;;5035528;28;20011;-79
2022/08/26 03:54:55;;;;;;;;;;;;;;;;;;5034297;28;19949;-81
2022/08/26 03:57:21;;;;;;;;;;;;;;;;;;5033969;28;19932;-80
2022/08/26 03:59:47;;;;;;;;;;;;;;;;;;5035206;28;19909;-82
2022/08/26 04:02:13;;;;;;;;;;;;;;;;;;5035167;28;19909;-82
2022/08/26 04:04:39;;;;;;;;;;;;;;;;;;5035317;28;19909;-80
2022/08/26 04:07:05;;;;;;;;;;;;;;;;;;5035569;28;19910;-80
2022/08/26 04:09:31;;;;;;;;;;;;;;;;;;5035244;28;20288;-82
2022/08/26 04:11:57;;;;;;;;;;;;;;;;;;5034873;28;19919;-80
2022/08/26 04:14:23;;;;;;;;;;;;;;;;;;5034961;28;20389;-82
2022/08/26 04:16:49;;;;;;;;;;;;;;;;;;5034810;28;19910;-79
2022/08/26 04:19:15;;;;;;;;;;;;;;;;;;5035099;28;19924;-79
2022/08/26 04:21:41;;;;;;;;;;;;;;;;;;5034984;28;19909;-81
2022/08/26 04:24:07;;;;;;;;;;;;;;;;;;5034717;28;19999;-81
2022/08/26 04:26:36;;;;;;;;;;;;;;;;;;5034662;28;19929;-83
2022/08/26 04:29:02;;;;;;;;;;;;;;;;;;5034904;28;19909;-78
2022/08/26 04:31:28;;;;;;;;;;;;;;;;;;5034548;28;20381;-79
2022/08/26 04:33:55;;;;;;;;;;;;;;;;;;5034479;28;19935;-79
2022/08/26 04:36:22;;;;;;;;;;;;;;;;;;5034455;28;19952;-80
2022/08/26 04:38:49;;;;;;;;;;;;;;;;;;5033160;28;20388;-79
2022/08/26 04:41:15;;;;;;;;;;;;;;;;;;5034438;28;19913;-80
2022/08/26 04:43:41;;;;;;;;;;;;;;;;;;5034338;28;20008;-78
2022/08/26 04:46:07;;;;;;;;;;;;;;;;;;5034333;28;19940;-78
2022/08/26 04:48:34;;;;;;;;;;;;;;;;;;5034143;28;19928;-80
2022/08/26 04:51:00;;;;;;;;;;;;;;;;;;5034238;28;19909;-80
2022/08/26 04:53:26;;;;;;;;;;;;;;;;;;5034214;28;19913;-81
2022/08/26 04:55:51;;;;;;;;;;;;;;;;;;5034614;28;20380;-80
2022/08/26 04:58:17;;;;;;;;;;;;;;;;;;5034090;28;19913;-81
2022/08/26 05:00:43;;;;;;;;;;;;;;;;;;5034042;28;19909;-81
2022/08/26 05:03:09;;;;;;;;;;;;;;;;;;5032731;28;20013;-79
2022/08/26 05:05:35;;;;;;;;;;;;;;;;;;5033812;28;19940;-79
2022/08/26 05:08:01;;;;;;;;;;;;;;;;;;5034498;28;19916;-82
2022/08/26 05:10:27;;;;;;;;;;;;;;;;;;5034081;28;20255;-79
2022/08/26 05:12:53;;;;;;;;;;;;;;;;;;5032595;28;20332;-80
2022/08/26 05:15:19;;;;;;;;;;;;;;;;;;5032628;28;19909;-80
2022/08/26 05:17:45;;;;;;;;;;;;;;;;;;5033730;28;19959;-81
2022/08/26 05:20:11;;;;;;;;;;;;;;;;;;5034171;28;19909;-78
2022/08/26 05:22:37;;;;;;;;;;;;;;;;;;5033809;28;19916;-82
2022/08/26 05:25:03;;;;;;;;;;;;;;;;;;5033810;28;20404;-79
2022/08/26 05:27:29;;;;;;;;;;;;;;;;;;5033750;28;19916;-78
2022/08/26 05:29:55;;;;;;;;;;;;;;;;;;5034169;28;20285;-81
2022/08/26 05:32:21;;;;;;;;;;;;;;;;;;5033655;28;19919;-80
2022/08/26 05:34:47;;;;;;;;;;;;;;;;;;5033802;28;19952;-78
2022/08/26 05:37:12;;;;;;;;;;;;;;;;;;5033638;28;19909;-79
2022/08/26 05:39:38;;;;;;;;;;;;;;;;;;5033618;28;19917;-81
2022/08/26 05:42:07;;;;;;;;;;;;;;;;;;5033567;28;19910;-79
2022/08/26 05:44:33;;;;;;;;;;;;;;;;;;5033719;28;19944;-81
2022/08/26 05:46:58;;;;;;;;;;;;;;;;;;5033431;28;20285;-81
2022/08/26 05:49:25;;;;;;;;;;;;;;;;;;5033114;28;19917;-79
2022/08/26 05:51:51;;;;;;;;;;;;;;;;;;5033788;28;19909;-81
2022/08/26 05:54:17;;;;;;;;;;;;;;;;;;5033750;28;19910;-77
2022/08/26 05:56:43;;;;;;;;;;;;;;;;;;5033530;28;19909;-81
2022/08/26 05:59:09;;;;;;;;;;;;;;;;;;5033527;28;20258;-81
2022/08/26 06:01:34;;;;;;;;;;;;;;;;;;5033431;28;20365;-79
2022/08/26 06:04:00;;;;;;;;;;;;;;;;;;5033758;28;19952;-81
2022/08/26 06:06:26;;;;;;;;;;;;;;;;;;5033725;28;19909;-80
2022/08/26 06:08:52;;;;;;;;;;;;;;;;;;5034004;28;19960;-80
2022/08/26 06:11:18;;;;;;;;;;;;;;;;;;5033306;28;19913;-80
2022/08/26 06:13:44;;;;;;;;;;;;;;;;;;5033194;28;19913;-79
2022/08/26 06:16:10;;;;;;;;;;;;;;;;;;5033253;28;19916;-80
2022/08/26 06:18:36;;;;;;;;;;;;;;;;;;5036092;28;20366;-78
2022/08/26 06:21:02;;;;;;;;;;;;;;;;;;5037005;28;20305;-81
2022/08/26 06:26:12;;;;;;;;;;;;;;;;;;5036701;28;20341;-81
2022/08/26 06:28:38;;;;;;;;;;;;;;;;;;5036885;28;19952;-80
2022/08/26 06:31:04;;;;;;;;;;;;;;;;;;5036905;28;19958;-82
2022/08/26 06:33:31;;;;;;;;;;;;;;;;;;5036740;28;19920;-81
2022/08/26 06:35:57;;;;;;;;;;;;;;;;;;5036736;28;19917;-80
2022/08/26 06:38:23;;;;;;;;;;;;;;;;;;5036869;28;19916;-82
2022/08/26 06:40:49;;;;;;;;;;;;;;;;;;5036712;28;20344;-79
2022/08/26 06:43:16;;;;;;;;;;;;;;;;;;5036612;28;20396;-79
2022/08/26 06:45:44;;;;;;;;;;;;;;;;;;5036631;28;19963;-83
2022/08/26 06:48:10;;;;;;;;;;;;;;;;;;5036351;28;19925;-78
2022/08/26 06:50:36;;;;;;;;;;;;;;;;;;5036657;28;20362;-84
2022/08/26 06:53:01;;;;;;;;;;;;;;;;;;5036426;28;20361;-83
2022/08/26 06:55:27;;;;;;;;;;;;;;;;;;5036426;28;19912;-79
2022/08/26 06:57:53;;;;;;;;;;;;;;;;;;5035060;28;19909;-81
2022/08/26 07:00:20;;;;;;;;;;;;;;;;;;5035050;28;19909;-80
2022/08/26 07:02:46;;;;;;;;;;;;;;;;;;5036483;28;19909;-81
2022/08/26 07:05:12;;;;;;;;;;;;;;;;;;5035974;28;19916;-82
2022/08/26 07:07:37;;;;;;;;;;;;;;;;;;5036690;28;19908;-79
2022/08/26 07:10:03;;;;;;;;;;;;;;;;;;5036128;28;19909;-79
2022/08/26 07:12:29;;;;;;;;;;;;;;;;;;5036190;28;20020;-81
2022/08/26 07:14:55;;;;;;;;;;;;;;;;;;5036088;28;19949;-81
2022/08/26 07:17:21;;;;;;;;;;;;;;;;;;5036692;28;19917;-80
2022/08/26 07:19:47;;;;;;;;;;;;;;;;;;5036100;28;19932;-79
2022/08/26 07:22:13;;;;;;;;;;;;;;;;;;5036023;28;19910;-79
2022/08/26 07:24:40;;;;;;;;;;;;;;;;;;5035835;28;19916;-78
2022/08/26 07:27:06;;;;;;;;;;;;;;;;;;5035840;28;19910;-80
2022/08/26 07:29:32;;;;;;;;;;;;;;;;;;5035720;28;19916;-78
2022/08/26 07:31:58;;;;;;;;;;;;;;;;;;5035699;28;19983;-77
2022/08/26 07:34:24;;;;;;;;;;;;;;;;;;5034429;28;20366;-80
2022/08/26 07:36:50;;;;;;;;;;;;;;;;;;5035641;28;19916;-79
2022/08/26 07:39:16;;;;;;;;;;;;;;;;;;5035571;28;19910;-80
2022/08/26 07:41:45;;;;;;;;;;;;;;;;;;5035952;28;20032;-83
2022/08/26 07:44:11;;;;;;;;;;;;;;;;;;5035488;28;19909;-80
2022/08/26 07:46:37;;;;;;;;;;;;;;;;;;5035562;28;20009;-81
2022/08/26 07:49:03;;;;;;;;;;;;;;;;;;5035762;28;19921;-82
2022/08/26 07:51:30;;;;;;;;;;;;;;;;;;5034092;28;19909;-83
2022/08/26 07:53:56;;;;;;;;;;;;;;;;;;5035255;28;19913;-82
2022/08/26 07:56:22;;;;;;;;;;;;;;;;;;5037630;28;20385;-79
2022/08/26 07:58:48;;;;;;;;;;;;;;;;;;5039048;28;19921;-80
2022/08/26 08:01:14;;;;;;;;;;;;;;;;;;5051055;28;20003;-80
2022/08/26 08:03:40;;;;;;;;;;;;;;;;;;5055258;28;20407;-82
2022/08/26 08:06:06;;;;;;;;;;;;;;;;;;5055371;28;19909;-83
2022/08/26 08:08:34;;;;;;;;;;;;;;;;;;5055612;28;19987;-76
2022/08/26 08:11:00;;;;;;;;;;;;;;;;;;5054849;28;19908;-79
2022/08/26 08:13:26;;;;;;;;;;;;;;;;;;5054788;28;19952;-80
2022/08/26 08:15:52;;;;;;;;;;;;;;;;;;5054535;28;19960;-82
2022/08/26 08:18:18;;;;;;;;;;;;;;;;;;5053489;28;19912;-83
2022/08/26 08:20:44;;;;;;;;;;;;;;;;;;5054749;28;19915;-75
2022/08/26 08:23:11;;;;;;;;;;;;;;;;;;5047226;28;19919;-77
2022/08/26 08:25:37;;;;;;;;;;;33.60;66.20;;;;;;5033462;28;19915;-82
2022/08/26 08:28:02;;;;;;;;;;;33.80;67.80;;;;;;5034664;28;19995;-81
2022/08/26 08:30:28;;;;;;;;;;;34.40;67.40;;;;;;5033389;28;19964;-79
2022/08/26 08:32:56;;;;;;;;;;;34.80;66.20;;;;;;5034491;28;19978;-78
2022/08/26 08:35:22;;;;;;;;;;;35.10;66.00;;;;;;5034585;28;20277;-79
2022/08/26 08:37:52;;;;;;;;;;;35.50;64.30;;;;;;5038393;28;20004;-79
2022/08/26 08:40:19;;;;;;;;;;;35.80;62.10;;;;;;5054241;28;19917;-80
2022/08/26 08:42:51;;;;;;;;;;;35.70;61.60;;;;;;5054310;28;19958;-78
2022/08/26 08:45:20;;;;;;;;;;;35.80;60.60;;;;;;5054235;28;20051;-79
2022/08/26 08:47:49;;;;;;;;;;;36.30;61.80;;;;;;5054484;28;19917;-78
2022/08/26 08:50:24;;;;;;;;;;;37.10;59.80;;;;;;5054309;28;19915;-79
2022/08/26 08:52:54;;;;;;;;;;;37.40;58.00;;;;;;5054052;28;20002;-80
2022/08/26 08:55:21;;;;;;;;;;;38.20;57.90;;;;;;5054045;28;19963;-79
2022/08/26 08:57:46;;;;;;;;;;;38.10;56.70;;;;;;5054063;28;19916;-79
2022/08/26 09:00:16;;;;;;;;;;;38.50;56.50;;;;;;5054014;28;19909;-78
2022/08/26 09:02:44;;;;;;;;;;;38.80;55.60;;;;;;5053890;28;19913;-80
2022/08/26 09:05:19;;;;;;;;;;;39.00;55.90;;;;;;5053912;28;19909;-81
2022/08/26 09:07:48;;;;;;;;;;;39.40;54.60;;;;;;5054640;28;19908;-81
2022/08/26 09:10:32;;;;;;;;;;;39.30;53.60;;;;;;5053907;28;19909;-80
2022/08/26 09:12:58;;;;;;;;;;;39.70;53.90;;;;;;5053911;28;19919;-79
2022/08/26 09:15:44;;;;;;;;;;;39.10;53.90;;;;;;5053666;28;19939;-80
2022/08/26 09:18:34;;;;;;;;;;;40.00;53.20;;;;;;5053524;28;19912;-81
2022/08/26 09:21:03;;;;;;;;;;;40.50;52.40;;;;;;5053738;28;19959;-79
2022/08/26 09:23:30;;;;;;;;;;;40.20;52.60;;;;;;5053806;28;20288;-79
2022/08/26 09:25:57;;;;;;;;;;;40.70;52.30;;;;;;5053679;28;20397;-79
2022/08/26 09:28:24;;;;;;;;;;;41.60;52.60;;;;;;5053788;28;19909;-78
2022/08/26 09:31:02;;;;;;;;;;;41.20;51.50;;;;;;5053599;28;19959;-82
2022/08/26 09:33:29;;;;;;;;;;;41.40;51.80;;;;;;5053674;28;20003;-82
2022/08/26 09:36:10;;;;;;;;;;;41.70;51.50;;;;;;5053693;28;19955;-85
2022/08/26 09:38:36;;;;;;;;;;;41.70;51.10;;;;;;5053558;28;19908;-82
2022/08/26 09:41:03;;;;;;;;;;;42.60;49.80;;;;;;5053590;28;19916;-82
2022/08/26 09:43:29;;;;;;;;;;;43.10;50.00;;;;;;5053332;28;19916;-78
2022/08/26 09:46:09;;;;;;;;;;;43.90;49.10;;;;;;5053565;28;20051;-81
2022/08/26 09:48:35;;;;;;;;;;;45.10;47.70;;;;;;5053360;28;19928;-82
2022/08/26 09:51:02;;;;;;;;;;;46.30;41.60;;;;;;5053797;28;20089;-81
2022/08/26 09:53:48;;;;;;;;;;;47.80;41.30;;;;;;5056533;28;20434;-82
2022/08/26 09:56:31;;;;;;;;;;;48.30;39.40;;;;;;5057830;28;19916;-80
2022/08/26 09:58:57;;;;;;;;;;;48.80;39.00;;;;;;5057396;28;19909;-80
2022/08/26 10:01:23;;;;;;;;;;;47.20;38.00;;;;;;5057371;28;20373;-85
2022/08/26 10:03:48;;;;;;;;;;;46.30;38.70;;;;;;5057358;28;19920;-80
2022/08/26 10:06:18;;;;;;;;;;;47.20;38.30;;;;;;5057386;28;19908;-84
2022/08/26 10:08:45;;;;;;;;;;;48.60;38.00;;;;;;5057730;28;19916;-83
2022/08/26 10:11:29;;;;;;;;;;;49.60;37.50;;;;;;5057150;28;20412;-82
2022/08/26 10:14:00;;;;;;;;;;;49.50;37.00;;;;;;5057442;28;19920;-83
2022/08/26 10:16:28;;;;;;;;;;;49.60;36.70;;;;;;5057191;28;20431;-83
2022/08/26 10:19:14;;;;;;;;;;;49.20;36.20;;;;;;5057061;28;19972;-83
2022/08/26 10:22:00;;;;;;;;;;;49.90;35.80;;;;;;5057622;28;19930;-83
2022/08/26 10:24:30;;;;;;;;;;;50.40;35.80;;;;;;5056626;28;20289;-83
2022/08/26 10:27:14;;;;;;;;;;;49.40;36.30;;;;;;5056875;28;19916;-84
2022/08/26 10:29:45;;;;;;;;;;;50.20;36.30;;;;;;5056849;28;19909;-84
2022/08/26 10:32:14;;;;;;;;;;;51.50;36.20;;;;;;5057159;28;20287;-82
2022/08/26 10:34:41;;;;;;;;;;;50.90;35.40;;;;;;5056869;28;19916;-81
2022/08/26 10:37:12;;;;;;;;;;;50.50;36.00;;;;;;5056732;28;19909;-82
2022/08/26 10:39:49;;;;;;;;;;;47.40;35.00;;;;;;5055174;28;19988;-80
2022/08/26 10:42:23;;;;;;;;;;;44.80;38.30;;;;;;5056832;28;19909;-84
2022/08/26 10:44:50;;;;;;;;;;;45.00;36.60;;;;;;5056742;28;19913;-84
2022/08/26 10:47:18;;;;;;;;;;;45.60;38.00;;;;;;5056474;28;19908;-85
2022/08/26 10:49:46;;;;;;;;;;;48.30;36.50;;;;;;5051908;28;19917;-83
2022/08/26 10:52:12;;;;;;;;;;;49.60;35.60;;;;;;5030128;28;19913;-83
2022/08/26 10:54:41;;;;;;;;;;;50.60;34.10;;;;;;5031331;28;19959;-82
2022/08/26 10:57:12;;;;;;;;;;;50.80;34.30;;;;;;5033559;28;19909;-83
2022/08/26 10:59:57;;;;;;;;;;;51.70;34.40;;;;;;5031457;28;20265;-84
2022/08/26 11:02:23;;;;;;;;;;;50.90;33.50;;;;;;5026950;28;19913;-83
2022/08/26 11:04:54;;;;;;;;;;;50.30;34.10;;;;;;5033555;28;19909;-83
2022/08/26 11:07:35;;;;;;;;;;;50.60;34.10;;;;;;5033924;28;20330;-83
2022/08/26 11:10:01;;;;;;;;;;;50.90;34.00;;;;;;5034429;28;19910;-82
2022/08/26 11:12:36;;;;;;;;;;;50.70;34.20;;;;;;5035773;28;19967;-84
2022/08/26 11:15:02;;;;;;;;;;;51.00;34.00;;;;;;5033847;28;19964;-82
2022/08/26 11:17:43;;;;;;;;;;;49.60;34.30;;;;;;5035475;28;19917;-85
2022/08/26 11:20:10;;;;;;;;;;;48.50;34.00;;;;;;5034614;28;20385;-82
2022/08/26 11:22:37;;;;;;;;;;;49.20;34.50;;;;;;5031596;28;19909;-82
2022/08/26 11:25:22;;;;;;;;;;;48.50;34.10;;;;;;5035506;28;20003;-83
2022/08/26 11:27:51;;;;;;;;;;;47.70;34.30;;;;;;5034413;28;19920;-84
2022/08/26 11:30:19;;;;;;;;;;;46.20;34.50;;;;;;5030422;28;19949;-84
2022/08/26 11:32:49;;;;;;;;;;;46.20;35.10;;;;;;5035353;28;20431;-81
2022/08/26 11:35:18;;;;;;;;;;;45.70;34.50;;;;;;5035743;28;20391;-83
2022/08/26 11:37:49;;;;;;;;;;;41.80;36.50;;;;;;5035718;28;19909;-80
2022/08/26 11:40:19;;;;;;;;;;;42.50;38.20;;;;;;5035569;28;19910;-84
2022/08/26 11:42:48;;;;;;;;;;;45.30;36.00;;;;;;5035828;28;19913;-85
2022/08/26 11:45:25;;;;;;;;;;;46.40;35.30;;;;;;5035561;28;19910;-85
2022/08/26 11:47:53;;;;;;;;;;;46.30;35.00;;;;;;5035294;28;19921;-83
2022/08/26 11:50:22;;;;;;;;;;;46.00;34.60;;;;;;5035743;28;19916;-83
2022/08/26 11:53:00;;;;;;;;;;;45.20;35.20;;;;;;5035347;28;19917;-82
2022/08/26 11:55:27;;;;;;;;;;;45.60;35.30;;;;;;5033860;28;19917;-84
2022/08/26 11:57:54;;;;;;;;;;;46.30;35.40;;;;;;5035334;28;19932;-82
2022/08/26 12:00:21;;;;;;;;;;;48.10;34.70;;;;;;5035172;28;19918;-83
2022/08/26 12:02:47;;;;;;;;;;;48.60;34.20;;;;;;5035245;28;20385;-85
2022/08/26 12:05:15;;;;;;;;;;;50.40;33.40;;;;;;5035065;28;19909;-87
2022/08/26 12:07:41;;;;;;;;;;;50.60;32.80;;;;;;5035026;28;19913;-82
2022/08/26 12:10:09;;;;;;;;;;;50.80;32.80;;;;;;5035595;28;19909;-84
2022/08/26 12:12:37;;;;;;;;;;;50.50;33.00;;;;;;5034924;28;19963;-86
2022/08/26 12:15:08;;;;;;;;;;;50.00;33.30;;;;;;5034313;28;19916;-87
2022/08/26 12:17:34;;;;;;;;;;;52.00;33.00;;;;;;5035187;28;19916;-84
2022/08/26 12:20:00;;;;;;;;;;;52.90;32.30;;;;;;5041876;28;19913;-86
2022/08/26 12:22:27;;;;;;;;;;;52.40;31.90;;;;;;5043138;28;19909;-83
2022/08/26 12:24:57;;;;;;;;;;;52.20;31.60;;;;;;5043210;28;20354;-85
2022/08/26 12:27:24;;;;;;;;;;;52.00;31.70;;;;;;5042978;28;20392;-84
2022/08/26 12:30:13;;;;;;;;;;;49.80;31.90;;;;;;5054669;28;19916;-87
2022/08/26 12:32:44;;;;;;;;;;;50.40;32.20;;;;;;5055028;28;19970;-82
2022/08/26 12:35:11;;;;;;;;;;;50.30;32.50;;;;;;5054600;28;19913;-87
2022/08/26 12:37:39;;;;;;;;;;;51.90;31.80;;;;;;5054561;28;19909;-84
2022/08/26 12:40:23;;;;;;;;;;;53.10;31.80;;;;;;5054428;28;20007;-86
2022/08/26 12:42:49;;;;;;;;;;;54.40;31.30;;;;;;5054692;28;19909;-81
2022/08/26 12:45:24;;;;;;;;;;;51.40;31.50;;;;;;5053090;28;19913;-84
2022/08/26 12:47:53;;;;;;;;;;;50.80;31.80;;;;;;5054250;28;20010;-81
2022/08/26 12:50:20;;;;;;;;;;;49.10;32.30;;;;;;5054469;28;19919;-85
2022/08/26 12:53:02;;;;;;;;;;;48.60;32.50;;;;;;5054454;28;19912;-83
2022/08/26 12:55:31;;;;;;;;;;;49.40;32.40;;;;;;5054162;28;19912;-83
2022/08/26 12:58:14;;;;;;;;;;;48.80;31.70;;;;;;5053969;28;19909;-83
2022/08/26 13:00:41;;;;;;;;;;;47.80;32.30;;;;;;5054200;28;19909;-86
2022/08/26 13:03:26;;;;;;;;;;;48.90;32.20;;;;;;5054056;28;20403;-85
2022/08/26 13:05:51;;;;;;;;;;;48.50;32.00;;;;;;5054160;28;19971;-83
2022/08/26 13:08:24;;;;;;;;;;;47.90;32.20;;;;;;5054380;28;20443;-84
2022/08/26 13:11:01;;;;;;;;;;;45.90;32.50;;;;;;5053881;28;19916;-82
2022/08/26 13:13:28;;;;;;;;;;;44.10;33.10;;;;;;5053931;28;20300;-83
2022/08/26 13:15:54;;;;;;;;;;;45.20;34.10;;;;;;5054049;28;20335;-84
2022/08/26 13:18:19;;;;;;;;;;;47.40;33.50;;;;;;5053644;28;19909;-86
2022/08/26 13:20:45;;;;;;;;;;;48.90;33.00;;;;;;5052367;28;19916;-85
2022/08/26 13:23:11;;;;;;;;;;;49.60;32.50;;;;;;5053925;28;19909;-85
2022/08/26 13:25:40;;;;;;;;;;;50.50;31.90;;;;;;5053702;28;20292;-84
2022/08/26 13:28:06;;;;;;;;;;;51.30;31.60;;;;;;5053603;28;19909;-83
2022/08/26 13:30:32;;;;;;;;;;;50.60;31.40;;;;;;5053906;28;19916;-86
2022/08/26 13:32:59;;;;;;;;;;;50.40;31.70;;;;;;5053866;28;19917;-85
2022/08/26 13:35:24;;;;;;;;;;;49.60;32.00;;;;;;5053643;28;19951;-83
2022/08/26 13:37:50;;;;;;;;;;;49.90;31.60;;;;;;5053907;28;19909;-86
2022/08/26 13:40:16;;;;;;;;;;;50.20;31.60;;;;;;5053602;28;20017;-86
2022/08/26 13:42:41;;;;;;;;;;;51.10;31.80;;;;;;5053536;28;19932;-83
2022/08/26 13:45:08;;;;;;;;;;;52.30;31.50;;;;;;5053475;28;20427;-83
2022/08/26 13:47:33;;;;;;;;;;;51.30;30.90;;;;;;5053696;28;19921;-83
2022/08/26 13:49:59;;;;;;;;;;;49.40;31.00;;;;;;5054043;28;19908;-81
2022/08/26 13:52:24;;;;;;;;;;;48.60;31.40;;;;;;5053239;28;19913;-83
2022/08/26 13:54:50;;;;;;;;;;;46.90;31.70;;;;;;5053822;28;19978;-82
2022/08/26 13:57:16;;;;;;;;;;;45.80;32.40;;;;;;5053513;28;19987;-82
2022/08/26 13:59:41;;;;;;;;;;;45.30;32.70;;;;;;5053441;28;20007;-82
2022/08/26 14:02:07;;;;;;;;;;;45.50;32.90;;;;;;5053288;28;19909;-83
2022/08/26 14:04:32;;;;;;;;;;;46.30;32.40;;;;;;5053236;28;19956;-82
2022/08/26 14:06:58;;;;;;;;;;;46.40;32.70;;;;;;5053578;28;19913;-82
2022/08/26 14:09:23;;;;;;;;;;;45.30;33.50;;;;;;5053733;28;19908;-84
2022/08/26 14:11:49;;;;;;;;;;;43.40;33.60;;;;;;5053148;28;19909;-82
2022/08/26 14:14:14;;;;;;;;;;;42.30;33.60;;;;;;5053186;28;20359;-81
2022/08/26 14:16:40;;;;;;;;;;;41.50;34.30;;;;;;5053515;28;19945;-82
2022/08/26 14:19:06;;;;;;;;;;;41.70;34.20;;;;;;5053125;28;20335;-82
2022/08/26 14:21:35;;;;;;;;;;;42.00;34.50;;;;;;5053253;28;19931;-83
2022/08/26 14:24:01;;;;;;;;;;;42.20;34.70;;;;;;5053034;28;19915;-82
2022/08/26 14:26:27;;;;;;;;;;;42.90;35.00;;;;;;5053631;28;20365;-83
2022/08/26 14:28:54;;;;;;;;;;;42.60;34.70;;;;;;5053274;28;20293;-81
2022/08/26 14:31:21;;;;;;;;;;;42.20;35.30;;;;;;5053068;28;19909;-82
2022/08/26 14:33:46;;;;;;;;;;;42.70;34.70;;;;;;5053535;28;20365;-82
2022/08/26 14:36:27;;;;;;;;;;;42.40;35.00;;;;;;5053008;28;19951;-80
2022/08/26 14:38:53;;;;;;;;;;;41.90;35.40;;;;;;5054976;28;20007;-80
2022/08/26 14:41:20;;;;;;;;;;;42.00;35.40;;;;;;5056874;28;19915;-83
2022/08/26 14:43:47;;;;;;;;;;;41.20;35.60;;;;;;5056880;28;19943;-82
2022/08/26 14:46:14;;;;;;;;;;;41.30;36.40;;;;;;5056636;28;19956;-81
2022/08/26 14:48:39;;;;;;;;;;;40.10;36.40;;;;;;5056353;28;19921;-82
2022/08/26 14:51:05;;;;;;;;;;;40.30;37.10;;;;;;5057079;28;19916;-82
2022/08/26 14:56:15;;;;;;;;;;;40.90;35.90;;;;;;5056248;28;19958;-82
2022/08/26 14:58:41;;;;;;;;;;;39.70;37.00;;;;;;5056329;28;19909;-81
2022/08/26 15:01:06;;;;;;;;;;;39.60;37.30;;;;;;5056311;28;19915;-83
2022/08/26 15:03:32;;;;;;;;;;;38.10;37.30;;;;;;5056669;28;20408;-80
2022/08/26 15:05:58;;;;;;;;;;;36.70;38.90;;;;;;5046439;28;20005;-81
2022/08/26 15:08:24;;;;;;;;;;;35.90;39.30;;;;;;5036253;28;20006;-81
2022/08/26 15:10:49;;;;;;;;;;;36.10;38.80;;;;;;5036684;28;19968;-81
2022/08/26 15:13:15;;;;;;;;;;;35.90;39.10;;;;;;5036135;28;20396;-80
2022/08/26 15:15:41;;;;;;;;;;;35.40;39.70;;;;;;5036115;28;19909;-80
2022/08/26 15:18:06;;;;;;;;;;;35.10;39.80;;;;;;5036049;28;19961;-82
2022/08/26 15:20:32;;;;;;;;;;;35.40;40.20;;;;;;5036006;28;20289;-79
2022/08/26 15:22:57;;;;;;;;;;;35.70;39.70;;;;;;5035950;28;19953;-81